Oelwein, Iowa
Current Conditions -  °F | °C
As of 12:15 AM on Friday 31 Oct 2014 (Local Time) from KOLZ Reporting Station
Overcast Overcast  
Wind Chill: 34°   Ceiling: 4200
Heat Index: 43°   Visibility: 10mi
Dew Point: 32°   Wind: 22mph
Humidity: 66%   Direction: 330°NNW
Pressure: 30.2"   Gusts: 29mph
Location:  42.68°N, 91.91°W
Report Text: KOLZ 310515Z AUTO 33019G25KT 10SM OVC042 06/M00 A3020 RMK AO2
Loading
Personal Weather Stations






























Interactive Weather Map
Tropical Storm Tracking
New forecast layout! Learn more

10-Day Weather Forecast

Advertisements
Track Severe Weather on mobile